createdAt,value
2017-12-29T00:00:47.325Z,13.50
2017-12-29T00:01:47.319Z,12.30
2017-12-29T00:02:47.304Z,13.20
2017-12-29T00:03:47.294Z,13.20
2017-12-29T00:04:47.281Z,13.30
2017-12-29T00:05:47.270Z,11.80
2017-12-29T00:06:47.257Z,13.90
2017-12-29T00:07:47.240Z,14.60
2017-12-29T00:08:47.237Z,15.30
2017-12-29T00:09:47.224Z,19.10
2017-12-29T00:10:47.210Z,13.50
2017-12-29T00:11:47.200Z,11.00
2017-12-29T00:12:47.185Z,12.60
2017-12-29T00:13:47.174Z,18.20
2017-12-29T00:14:47.161Z,11.30
2017-12-29T00:15:47.150Z,12.50
2017-12-29T00:16:47.137Z,14.50
2017-12-29T00:17:47.127Z,14.40
2017-12-29T00:18:47.114Z,13.20
2017-12-29T00:19:47.103Z,15.20
2017-12-29T00:20:47.093Z,12.90
2017-12-29T00:21:47.077Z,15.90
2017-12-29T00:22:47.067Z,13.40
2017-12-29T00:23:47.062Z,12.80
2017-12-29T00:24:47.060Z,18.90
2017-12-29T00:25:47.055Z,13.20
2017-12-29T00:26:47.021Z,15.10
2017-12-29T00:27:47.007Z,16.60
2017-12-29T00:28:46.999Z,11.50
2017-12-29T00:29:46.996Z,16.50
2017-12-29T00:30:46.978Z,11.30
2017-12-29T00:31:46.965Z,18.00
2017-12-29T00:32:46.952Z,15.20
2017-12-29T00:33:46.937Z,14.40
2017-12-29T00:34:46.923Z,12.80
2017-12-29T00:35:46.916Z,12.00
2017-12-29T00:36:46.905Z,15.50
2017-12-29T00:37:46.898Z,10.70
2017-12-29T00:38:46.878Z,14.50
2017-12-29T00:39:46.864Z,13.30
2017-12-29T00:40:46.857Z,14.10
2017-12-29T00:41:46.845Z,16.40
2017-12-29T00:42:46.829Z,16.20
2017-12-29T00:43:46.820Z,14.30
2017-12-29T00:44:46.806Z,14.70
2017-12-29T00:45:46.797Z,14.40
2017-12-29T00:46:46.790Z,16.10
2017-12-29T00:47:46.773Z,12.60
2017-12-29T00:48:46.768Z,12.60
2017-12-29T00:49:46.748Z,14.20
2017-12-29T00:50:46.735Z,13.60
2017-12-29T00:51:46.726Z,15.00
2017-12-29T00:52:46.711Z,14.50
2017-12-29T00:53:46.700Z,16.20
2017-12-29T00:54:46.690Z,14.00
2017-12-29T00:55:46.678Z,17.20
2017-12-29T00:56:46.665Z,15.20
2017-12-29T00:57:46.652Z,12.40
2017-12-29T00:58:46.640Z,13.10
2017-12-29T00:59:46.623Z,12.10
2017-12-29T01:00:46.620Z,17.70
2017-12-29T01:01:46.606Z,18.10
2017-12-29T01:02:46.588Z,16.40
2017-12-29T01:03:46.579Z,12.80
2017-12-29T01:04:46.570Z,14.80
2017-12-29T01:05:46.557Z,16.30
2017-12-29T01:06:46.540Z,16.40
2017-12-29T01:07:46.533Z,13.60
2017-12-29T01:08:46.542Z,15.50
2017-12-29T01:09:46.511Z,18.00
2017-12-29T01:10:46.495Z,14.20
2017-12-29T01:11:46.484Z,16.40
2017-12-29T01:12:46.471Z,13.90
2017-12-29T01:13:46.461Z,15.10
2017-12-29T01:14:46.447Z,16.90
2017-12-29T01:15:46.442Z,17.20
2017-12-29T01:16:46.432Z,13.50
2017-12-29T01:17:46.411Z,12.50
2017-12-29T01:18:46.396Z,12.30
2017-12-29T01:19:46.387Z,11.70
2017-12-29T01:20:46.375Z,15.60
2017-12-29T01:21:46.364Z,16.60
2017-12-29T01:22:46.355Z,12.80
2017-12-29T01:23:46.358Z,12.70
2017-12-29T01:24:46.325Z,14.70
2017-12-29T01:25:46.312Z,13.80
2017-12-29T01:26:46.307Z,14.60
2017-12-29T01:27:46.292Z,13.50
2017-12-29T01:28:46.282Z,14.70
2017-12-29T01:29:46.268Z,15.30
2017-12-29T01:30:46.254Z,13.00
2017-12-29T01:31:46.246Z,15.90
2017-12-29T01:32:46.231Z,14.10
2017-12-29T01:33:46.226Z,17.10
2017-12-29T01:34:46.207Z,15.30
2017-12-29T01:35:46.196Z,15.30
2017-12-29T01:36:52.990Z,14.90
2017-12-29T01:37:46.175Z,14.20
2017-12-29T01:38:46.169Z,13.60
2017-12-29T01:39:46.172Z,14.40
2017-12-29T01:40:46.133Z,17.30
2017-12-29T01:41:46.127Z,15.20
2017-12-29T01:42:46.112Z,17.30
2017-12-29T01:43:46.100Z,15.40
2017-12-29T01:44:46.085Z,15.60
2017-12-29T01:45:46.075Z,16.60
2017-12-29T01:46:46.065Z,14.20
2017-12-29T01:47:46.047Z,17.70
2017-12-29T01:48:46.041Z,15.10
2017-12-29T01:49:46.027Z,14.50
2017-12-29T01:50:46.020Z,16.40
2017-12-29T01:51:46.003Z,17.90
2017-12-29T01:52:45.990Z,15.50
2017-12-29T01:53:45.980Z,15.00
2017-12-29T01:54:45.964Z,16.90
2017-12-29T01:55:45.954Z,13.50
2017-12-29T01:56:45.947Z,17.90
2017-12-29T01:57:45.934Z,15.20
2017-12-29T01:58:45.916Z,14.70
2017-12-29T01:59:45.906Z,15.20
2017-12-29T02:00:45.895Z,17.10
2017-12-29T02:01:45.880Z,14.40
2017-12-29T02:02:45.873Z,16.90
2017-12-29T02:03:45.857Z,14.60
2017-12-29T02:04:45.844Z,14.30
2017-12-29T02:05:45.870Z,17.00
2017-12-29T02:06:45.821Z,13.50
2017-12-29T02:07:45.805Z,18.30
2017-12-29T02:08:45.791Z,14.10
2017-12-29T02:09:45.783Z,17.10
2017-12-29T02:10:45.771Z,14.10
2017-12-29T02:11:45.759Z,13.40
2017-12-29T02:12:45.747Z,16.20
2017-12-29T02:13:45.735Z,14.30
2017-12-29T02:14:45.725Z,15.10
2017-12-29T02:15:45.706Z,13.80
2017-12-29T02:16:45.694Z,15.10
2017-12-29T02:17:45.684Z,14.30
2017-12-29T02:18:45.670Z,19.30
2017-12-29T02:19:45.656Z,19.50
2017-12-29T02:20:45.652Z,21.20
2017-12-29T02:21:45.636Z,14.30
2017-12-29T02:22:45.620Z,14.90
2017-12-29T02:23:45.608Z,17.60
2017-12-29T02:24:45.597Z,16.50
2017-12-29T02:25:45.584Z,15.50
2017-12-29T02:26:45.573Z,16.60
2017-12-29T02:27:45.619Z,17.90
2017-12-29T02:28:45.547Z,16.10
2017-12-29T02:29:45.534Z,15.40
2017-12-29T02:30:45.519Z,14.40
2017-12-29T02:31:45.509Z,18.00
2017-12-29T02:32:45.493Z,16.00
2017-12-29T02:33:45.484Z,13.80
2017-12-29T02:34:45.470Z,16.60
2017-12-29T02:35:45.460Z,18.70
2017-12-29T02:36:45.448Z,19.50
2017-12-29T02:37:45.431Z,15.10
2017-12-29T02:38:45.423Z,15.60
2017-12-29T02:39:45.406Z,18.50
2017-12-29T02:40:45.395Z,15.10
2017-12-29T02:41:45.385Z,14.60
2017-12-29T02:42:45.370Z,18.60
2017-12-29T02:43:45.357Z,14.30
2017-12-29T02:44:45.345Z,15.80
2017-12-29T02:45:45.329Z,15.10
2017-12-29T02:46:45.319Z,16.10
2017-12-29T02:47:45.308Z,16.80
2017-12-29T02:48:45.296Z,17.40
2017-12-29T02:49:45.283Z,16.10
2017-12-29T02:50:45.268Z,14.40
2017-12-29T02:51:45.256Z,15.60
2017-12-29T02:52:45.243Z,14.80
2017-12-29T02:53:45.231Z,15.80
2017-12-29T02:54:45.217Z,14.60
2017-12-29T02:55:45.210Z,16.30
2017-12-29T02:56:45.190Z,14.80
2017-12-29T02:57:45.181Z,18.80
2017-12-29T02:58:45.161Z,18.60
2017-12-29T02:59:45.154Z,13.80
2017-12-29T03:00:45.142Z,13.80
2017-12-29T03:01:45.129Z,17.70
2017-12-29T03:02:45.116Z,21.30
2017-12-29T03:03:45.107Z,16.80
2017-12-29T03:04:45.096Z,17.70
2017-12-29T03:05:45.078Z,14.50
2017-12-29T03:06:45.064Z,18.50
2017-12-29T03:07:45.054Z,13.90
2017-12-29T03:08:45.043Z,14.70
2017-12-29T03:09:45.027Z,17.20
2017-12-29T03:10:45.015Z,18.60
2017-12-29T03:11:45.004Z,16.20
2017-12-29T03:12:44.988Z,13.20
2017-12-29T03:13:44.982Z,16.40
2017-12-29T03:14:44.962Z,17.90
2017-12-29T03:15:44.953Z,21.10
2017-12-29T03:16:44.934Z,21.30
2017-12-29T03:17:44.924Z,15.10
2017-12-29T03:18:44.913Z,16.30
2017-12-29T03:19:44.908Z,16.00
2017-12-29T03:20:44.882Z,18.20
2017-12-29T03:21:44.879Z,15.30
2017-12-29T03:22:44.859Z,14.80
2017-12-29T03:23:44.847Z,17.00
2017-12-29T03:24:44.837Z,16.70
2017-12-29T03:25:44.820Z,15.40
2017-12-29T03:26:44.807Z,20.30
2017-12-29T03:27:44.795Z,16.80
2017-12-29T03:28:44.782Z,17.60
2017-12-29T03:29:44.788Z,18.10
2017-12-29T03:30:44.755Z,18.00
2017-12-29T03:31:44.747Z,17.60
2017-12-29T03:32:44.732Z,18.70
2017-12-29T03:33:44.717Z,19.30
2017-12-29T03:34:44.703Z,20.90
2017-12-29T03:35:44.691Z,17.20
2017-12-29T03:36:44.680Z,19.70
2017-12-29T03:37:44.667Z,18.80
2017-12-29T03:38:44.658Z,16.40
2017-12-29T03:39:44.640Z,20.00
2017-12-29T03:40:44.629Z,20.10
2017-12-29T03:41:44.610Z,17.70
2017-12-29T03:42:44.606Z,17.10
2017-12-29T03:43:44.590Z,18.40
2017-12-29T03:44:44.578Z,14.90
2017-12-29T03:45:44.560Z,20.60
2017-12-29T03:46:44.548Z,20.10
2017-12-29T03:47:44.536Z,25.10
2017-12-29T03:48:44.531Z,16.70
2017-12-29T03:49:44.509Z,20.50
2017-12-29T03:50:44.494Z,14.00
2017-12-29T03:51:44.486Z,19.00
2017-12-29T03:52:44.473Z,18.50
2017-12-29T03:53:44.461Z,18.70
2017-12-29T03:54:44.446Z,17.90
2017-12-29T03:55:44.434Z,16.60
2017-12-29T03:56:44.420Z,19.40
2017-12-29T03:57:44.417Z,16.40
2017-12-29T03:58:44.388Z,19.50
2017-12-29T03:59:44.382Z,15.80
2017-12-29T04:00:44.369Z,17.40
2017-12-29T04:01:44.354Z,17.00
2017-12-29T04:02:44.345Z,17.70
2017-12-29T04:03:44.333Z,14.60
2017-12-29T04:04:44.318Z,21.20
2017-12-29T04:05:44.303Z,20.40
2017-12-29T04:06:44.291Z,17.10
2017-12-29T04:07:44.276Z,13.90
2017-12-29T04:08:44.265Z,17.00
2017-12-29T04:09:44.253Z,17.00
2017-12-29T04:10:44.238Z,18.20
2017-12-29T04:11:44.227Z,18.40
2017-12-29T04:12:44.221Z,20.50
2017-12-29T04:13:44.202Z,20.90
2017-12-29T04:14:44.186Z,19.00
2017-12-29T04:15:44.170Z,16.80
2017-12-29T04:16:44.163Z,15.80
2017-12-29T04:17:44.183Z,17.20
2017-12-29T04:18:44.138Z,17.00
2017-12-29T04:19:44.123Z,19.70
2017-12-29T04:20:44.109Z,18.50
2017-12-29T04:21:44.099Z,15.30
2017-12-29T04:22:44.084Z,16.10
2017-12-29T04:23:44.071Z,19.00
2017-12-29T04:24:44.057Z,17.10
2017-12-29T04:25:44.045Z,20.50
2017-12-29T04:26:44.032Z,16.30
2017-12-29T04:27:44.019Z,16.80
2017-12-29T04:28:44.005Z,17.10
2017-12-29T04:29:43.998Z,16.30
2017-12-29T04:30:43.979Z,18.20
2017-12-29T04:31:43.962Z,17.20
2017-12-29T04:32:43.952Z,15.50
2017-12-29T04:33:43.940Z,16.90
2017-12-29T04:34:43.926Z,23.50
2017-12-29T04:35:43.918Z,19.70
2017-12-29T04:36:43.902Z,20.40
2017-12-29T04:37:43.888Z,19.00
2017-12-29T04:38:43.885Z,16.70
2017-12-29T04:39:43.859Z,16.50
2017-12-29T04:40:43.849Z,17.00
2017-12-29T04:41:43.837Z,17.00
2017-12-29T04:42:43.822Z,20.10
2017-12-29T04:43:43.807Z,17.70
2017-12-29T04:44:43.796Z,15.30
2017-12-29T04:45:43.782Z,16.00
2017-12-29T04:46:43.770Z,20.80
2017-12-29T04:47:43.755Z,17.10
2017-12-29T04:48:43.749Z,16.70
2017-12-29T04:49:43.730Z,16.10
2017-12-29T04:50:43.722Z,14.60
2017-12-29T04:51:43.713Z,16.90
2017-12-29T04:52:43.698Z,22.30
2017-12-29T04:53:43.680Z,16.90
2017-12-29T04:54:43.664Z,19.30
2017-12-29T04:55:43.653Z,16.30
2017-12-29T04:56:43.639Z,14.20
2017-12-29T04:57:43.628Z,18.30
2017-12-29T04:58:43.610Z,21.10
2017-12-29T04:59:43.599Z,17.10
2017-12-29T05:00:43.586Z,17.80
2017-12-29T05:01:43.574Z,19.10
2017-12-29T05:02:43.557Z,20.70
2017-12-29T05:03:43.549Z,20.00
2017-12-29T05:04:43.539Z,19.70
2017-12-29T05:05:43.524Z,18.60
2017-12-29T05:06:43.509Z,22.30
2017-12-29T05:07:43.493Z,18.40
2017-12-29T05:08:43.481Z,20.50
2017-12-29T05:09:43.470Z,20.10
2017-12-29T05:10:43.457Z,15.10
2017-12-29T05:11:43.445Z,16.20
2017-12-29T05:12:43.431Z,18.50
2017-12-29T05:13:43.420Z,16.50
2017-12-29T05:14:43.400Z,17.20
2017-12-29T05:15:43.395Z,18.40
2017-12-29T05:16:43.379Z,21.10
2017-12-29T05:17:43.366Z,19.40
2017-12-29T05:18:43.349Z,16.30
2017-12-29T05:19:43.340Z,18.50
2017-12-29T05:20:43.325Z,18.80
2017-12-29T05:21:43.343Z,16.80
2017-12-29T05:22:43.300Z,25.00
2017-12-29T05:23:43.287Z,18.20
2017-12-29T05:24:43.273Z,19.00
2017-12-29T05:25:43.261Z,20.90
2017-12-29T05:26:43.246Z,22.10
2017-12-29T05:27:43.234Z,21.10
2017-12-29T05:28:43.220Z,17.90
2017-12-29T05:29:43.206Z,20.20
2017-12-29T05:30:43.198Z,21.50
2017-12-29T05:31:43.181Z,19.20
2017-12-29T05:32:43.170Z,20.40
2017-12-29T05:33:43.156Z,20.20
2017-12-29T05:34:43.158Z,18.40
2017-12-29T05:35:43.127Z,18.40
2017-12-29T05:36:43.112Z,20.90
2017-12-29T05:37:43.103Z,18.50
2017-12-29T05:38:43.095Z,18.80
2017-12-29T05:39:43.075Z,19.90
2017-12-29T05:40:43.062Z,18.70
2017-12-29T05:41:43.053Z,20.50
2017-12-29T05:42:43.036Z,20.10
2017-12-29T05:43:43.021Z,23.80
2017-12-29T05:44:43.010Z,19.50
2017-12-29T05:45:42.998Z,21.30
2017-12-29T05:46:42.982Z,17.90
2017-12-29T05:47:42.971Z,20.40
2017-12-29T05:48:42.964Z,20.90
2017-12-29T05:49:42.945Z,17.10
2017-12-29T05:50:42.930Z,19.10
2017-12-29T05:51:42.917Z,19.10
2017-12-29T05:52:42.906Z,21.60
2017-12-29T05:53:42.897Z,18.70
2017-12-29T05:54:42.879Z,20.40
2017-12-29T05:55:42.863Z,18.20
2017-12-29T05:56:42.850Z,22.70
2017-12-29T05:57:42.837Z,17.50
2017-12-29T05:58:42.826Z,20.60
2017-12-29T05:59:42.815Z,21.10
2017-12-29T06:00:42.800Z,19.00
2017-12-29T06:01:42.787Z,18.60
2017-12-29T06:02:42.785Z,15.70
2017-12-29T06:03:42.783Z,15.80
2017-12-29T06:04:42.745Z,17.20
2017-12-29T06:05:42.732Z,16.30
2017-12-29T06:06:42.719Z,19.20
2017-12-29T06:07:42.704Z,18.50
2017-12-29T06:08:42.689Z,19.90
2017-12-29T06:09:42.682Z,18.20
2017-12-29T06:10:42.664Z,18.80
2017-12-29T06:11:42.654Z,21.70
2017-12-29T06:12:42.635Z,17.20
2017-12-29T06:13:42.628Z,18.20
2017-12-29T06:14:42.618Z,18.20
2017-12-29T06:15:42.601Z,15.40
2017-12-29T06:16:42.586Z,20.50
2017-12-29T06:17:42.596Z,17.40
2017-12-29T06:18:42.561Z,19.10
2017-12-29T06:19:42.548Z,19.10
2017-12-29T06:20:42.539Z,18.10
2017-12-29T06:21:42.519Z,18.50
2017-12-29T06:22:42.506Z,21.70
2017-12-29T06:23:42.493Z,18.60
2017-12-29T06:24:42.481Z,20.60
2017-12-29T06:25:42.468Z,19.40
2017-12-29T06:26:42.450Z,20.50
2017-12-29T06:27:42.439Z,16.50
2017-12-29T06:28:42.427Z,21.00
2017-12-29T06:29:42.415Z,16.20
2017-12-29T06:30:42.400Z,18.30
2017-12-29T06:31:42.387Z,21.00
2017-12-29T06:32:42.372Z,16.70
2017-12-29T06:33:42.362Z,15.60
2017-12-29T06:34:42.347Z,15.60
2017-12-29T06:35:42.330Z,16.70
2017-12-29T06:36:42.320Z,18.00
2017-12-29T06:37:42.331Z,17.10
2017-12-29T06:38:42.293Z,20.60
2017-12-29T06:39:42.279Z,21.70
2017-12-29T06:40:42.278Z,18.50
2017-12-29T06:41:42.254Z,14.50
2017-12-29T06:42:42.242Z,16.70
2017-12-29T06:43:42.227Z,21.00
2017-12-29T06:44:42.214Z,16.00
2017-12-29T06:45:42.200Z,15.40
2017-12-29T06:46:42.185Z,18.00
2017-12-29T06:47:42.170Z,17.10
2017-12-29T06:48:42.160Z,18.00
2017-12-29T06:49:42.146Z,15.50
2017-12-29T06:50:42.143Z,18.80
2017-12-29T06:51:42.126Z,17.00
2017-12-29T06:52:42.106Z,15.50
2017-12-29T06:53:42.092Z,15.80
2017-12-29T06:54:42.075Z,15.60
2017-12-29T06:55:42.065Z,17.00
2017-12-29T06:56:42.050Z,15.70
2017-12-29T06:57:42.044Z,18.50
2017-12-29T06:58:42.022Z,18.80
2017-12-29T06:59:42.012Z,16.10
2017-12-29T07:00:41.999Z,16.10
2017-12-29T07:01:41.986Z,16.00
2017-12-29T07:02:41.971Z,17.30
2017-12-29T07:03:41.960Z,17.30
2017-12-29T07:04:41.946Z,18.30
2017-12-29T07:05:41.934Z,20.10
2017-12-29T07:06:41.921Z,19.70
2017-12-29T07:07:41.905Z,14.50
2017-12-29T07:08:41.898Z,18.10
2017-12-29T07:09:41.874Z,20.60
2017-12-29T07:10:41.861Z,16.00
2017-12-29T07:11:41.851Z,16.10
2017-12-29T07:12:41.838Z,17.80
2017-12-29T07:13:41.825Z,22.80
2017-12-29T07:14:41.811Z,24.50
2017-12-29T07:15:41.796Z,16.40
2017-12-29T07:16:41.779Z,17.60
2017-12-29T07:17:41.771Z,30.60
2017-12-29T07:18:41.756Z,16.10
2017-12-29T07:19:41.744Z,16.30
2017-12-29T07:20:41.728Z,16.60
2017-12-29T07:21:41.716Z,15.60
2017-12-29T07:22:41.702Z,15.00
2017-12-29T07:23:41.685Z,16.80
2017-12-29T07:24:41.679Z,18.30
2017-12-29T07:25:41.662Z,16.00
2017-12-29T07:26:41.648Z,13.90
2017-12-29T07:27:41.633Z,15.50
2017-12-29T07:28:41.623Z,15.00
2017-12-29T07:29:41.610Z,17.50
2017-12-29T07:30:41.592Z,14.50
2017-12-29T07:31:41.583Z,14.50
2017-12-29T07:32:41.570Z,16.50
2017-12-29T07:33:41.555Z,16.90
2017-12-29T07:34:41.540Z,15.70
2017-12-29T07:35:41.532Z,16.50
2017-12-29T07:36:41.511Z,16.40
2017-12-29T07:37:41.500Z,17.40
2017-12-29T07:38:41.487Z,18.50
2017-12-29T07:39:41.472Z,15.60
2017-12-29T07:40:41.475Z,17.20
2017-12-29T07:41:41.446Z,14.50
2017-12-29T07:42:41.432Z,17.90
2017-12-29T07:43:41.421Z,15.80
2017-12-29T07:44:41.406Z,19.30
2017-12-29T07:45:41.397Z,16.00
2017-12-29T07:46:41.380Z,15.10
2017-12-29T07:47:41.365Z,15.20
2017-12-29T07:48:41.354Z,15.10
2017-12-29T07:49:41.334Z,16.00
2017-12-29T07:50:41.327Z,15.80
2017-12-29T07:51:41.327Z,13.60
2017-12-29T07:52:41.294Z,18.20
2017-12-29T07:53:41.285Z,17.20
2017-12-29T07:54:41.268Z,15.40
2017-12-29T07:55:41.257Z,12.70
2017-12-29T07:56:41.244Z,16.20
2017-12-29T07:57:41.233Z,15.90
2017-12-29T07:58:41.217Z,14.80
2017-12-29T07:59:41.245Z,14.20
2017-12-29T08:00:41.190Z,13.60
2017-12-29T08:01:41.178Z,14.00
2017-12-29T08:02:41.214Z,18.00
2017-12-29T08:03:41.150Z,14.60
2017-12-29T08:04:41.140Z,13.80
2017-12-29T08:05:41.124Z,15.50
2017-12-29T08:06:41.106Z,13.10
2017-12-29T08:07:41.097Z,14.80
2017-12-29T08:08:41.082Z,15.90
2017-12-29T08:09:41.070Z,11.20
2017-12-29T08:10:41.056Z,14.40
2017-12-29T08:11:41.043Z,12.10
2017-12-29T08:12:41.031Z,13.90
2017-12-29T08:13:41.013Z,12.00
2017-12-29T08:14:41.004Z,13.20
2017-12-29T08:15:40.991Z,12.40
2017-12-29T08:16:40.978Z,13.70
2017-12-29T08:17:40.964Z,12.70
2017-12-29T08:18:40.951Z,14.50
2017-12-29T08:19:40.936Z,13.80
2017-12-29T08:20:40.922Z,15.70
2017-12-29T08:21:40.912Z,14.60
2017-12-29T08:22:40.898Z,10.90
2017-12-29T08:23:40.888Z,14.10
2017-12-29T08:24:40.873Z,14.00
2017-12-29T08:25:40.861Z,10.70
2017-12-29T08:26:40.846Z,11.70
2017-12-29T08:27:40.832Z,11.20
2017-12-29T08:28:40.819Z,11.00
2017-12-29T08:29:40.807Z,11.50
2017-12-29T08:30:40.795Z,9.00
2017-12-29T08:31:40.787Z,14.30
2017-12-29T08:32:40.771Z,9.60
2017-12-29T08:33:40.758Z,15.30
2017-12-29T08:34:40.740Z,10.60
2017-12-29T08:35:40.732Z,9.30
2017-12-29T08:36:40.719Z,10.70
2017-12-29T08:37:40.709Z,10.80
2017-12-29T08:38:40.698Z,12.20
2017-12-29T08:39:40.688Z,7.70
2017-12-29T08:40:40.673Z,9.60
2017-12-29T08:41:40.654Z,9.20
2017-12-29T08:42:40.648Z,10.70
2017-12-29T08:43:40.635Z,11.20
2017-12-29T08:44:40.625Z,7.60
2017-12-29T08:45:40.616Z,9.40
2017-12-29T08:46:40.599Z,9.90
2017-12-29T08:47:40.587Z,9.20
2017-12-29T08:48:40.574Z,9.70
2017-12-29T08:49:40.562Z,11.00
2017-12-29T08:50:40.550Z,11.40
2017-12-29T08:51:40.540Z,7.30
2017-12-29T08:52:40.530Z,10.00
2017-12-29T08:53:40.518Z,8.40
2017-12-29T08:54:40.507Z,8.60
2017-12-29T08:55:40.497Z,8.40
2017-12-29T08:56:40.487Z,8.00
2017-12-29T08:57:40.476Z,7.50
2017-12-29T08:58:40.464Z,7.30
2017-12-29T08:59:40.454Z,8.00
2017-12-29T09:00:40.445Z,8.00
2017-12-29T09:01:40.435Z,8.70
2017-12-29T09:02:40.423Z,8.30
2017-12-29T09:03:40.411Z,6.80
2017-12-29T09:04:40.404Z,8.90
2017-12-29T09:05:40.396Z,8.20
2017-12-29T09:06:40.411Z,7.30
2017-12-29T09:07:40.378Z,7.90
2017-12-29T09:08:40.367Z,7.40
2017-12-29T09:09:40.357Z,8.50
2017-12-29T09:10:40.346Z,6.70
2017-12-29T09:11:40.342Z,6.10
2017-12-29T09:12:40.328Z,8.40
2017-12-29T09:13:40.324Z,7.10
2017-12-29T09:14:40.315Z,6.40
2017-12-29T09:15:40.332Z,7.70
2017-12-29T09:16:40.296Z,7.50
2017-12-29T09:17:40.282Z,6.90
2017-12-29T09:18:40.278Z,9.30
2017-12-29T09:19:40.270Z,7.10
2017-12-29T09:20:40.262Z,8.00
2017-12-29T09:21:40.255Z,6.70
2017-12-29T09:22:40.243Z,6.30
2017-12-29T09:23:40.238Z,7.90
2017-12-29T09:24:40.226Z,5.40
2017-12-29T09:25:40.224Z,7.60
2017-12-29T09:26:40.215Z,7.70
2017-12-29T09:27:40.228Z,7.10
2017-12-29T09:28:40.199Z,7.00
2017-12-29T09:29:40.200Z,6.90
2017-12-29T09:30:40.188Z,6.50
2017-12-29T09:31:40.171Z,7.40
2017-12-29T09:32:40.175Z,7.60
2017-12-29T09:33:40.163Z,6.60
2017-12-29T09:34:40.153Z,8.00
2017-12-29T09:35:40.147Z,9.40
2017-12-29T09:36:40.139Z,6.80
2017-12-29T09:37:40.128Z,5.90
2017-12-29T09:38:40.125Z,6.20
2017-12-29T09:39:40.120Z,8.50
2017-12-29T09:40:40.110Z,7.40
2017-12-29T09:41:40.101Z,6.20
2017-12-29T09:42:40.096Z,6.80
2017-12-29T09:43:40.099Z,8.10
2017-12-29T09:44:40.084Z,8.50
2017-12-29T09:45:40.092Z,6.80
2017-12-29T09:46:40.068Z,10.30
2017-12-29T09:47:40.061Z,8.80
2017-12-29T09:48:40.051Z,6.40
2017-12-29T09:49:40.051Z,8.20
2017-12-29T09:50:40.052Z,6.80
2017-12-29T09:51:40.035Z,5.50
2017-12-29T09:52:40.028Z,6.00
2017-12-29T09:53:40.021Z,6.90
2017-12-29T09:54:40.013Z,5.90
2017-12-29T09:55:40.007Z,4.60
2017-12-29T09:56:40.002Z,4.30
2017-12-29T09:57:39.996Z,7.20
2017-12-29T09:58:39.993Z,7.10
2017-12-29T09:59:39.983Z,6.20
2017-12-29T10:00:39.972Z,5.80
2017-12-29T10:01:40.029Z,5.30
2017-12-29T10:02:39.960Z,6.00
2017-12-29T10:03:39.953Z,6.00
2017-12-29T10:04:39.951Z,4.20
2017-12-29T10:05:39.952Z,5.00
2017-12-29T10:06:39.935Z,5.80
2017-12-29T10:07:39.926Z,6.00
2017-12-29T10:08:39.921Z,4.10
2017-12-29T10:09:39.914Z,5.50
2017-12-29T10:10:39.908Z,5.90
2017-12-29T10:11:39.896Z,6.90
2017-12-29T10:12:39.895Z,4.20
2017-12-29T10:13:39.887Z,6.70
2017-12-29T10:14:39.878Z,5.90
2017-12-29T10:15:39.874Z,5.70
2017-12-29T10:16:39.866Z,5.40
2017-12-29T10:17:39.856Z,4.90
2017-12-29T10:18:39.851Z,6.00
2017-12-29T10:19:39.847Z,5.30
2017-12-29T10:20:39.853Z,7.30
2017-12-29T10:21:39.830Z,4.90
2017-12-29T10:22:39.827Z,7.50
2017-12-29T10:23:39.818Z,6.60
2017-12-29T10:24:39.812Z,4.50
2017-12-29T10:25:39.808Z,6.70
2017-12-29T10:26:39.795Z,6.00
2017-12-29T10:27:39.795Z,5.90
2017-12-29T10:28:39.784Z,6.00
2017-12-29T10:29:39.792Z,6.70
2017-12-29T10:30:39.777Z,6.80
2017-12-29T10:31:39.778Z,6.50
2017-12-29T10:32:39.760Z,5.80
2017-12-29T10:33:39.762Z,6.30
2017-12-29T10:34:39.747Z,5.40
2017-12-29T10:35:39.742Z,6.10
2017-12-29T10:36:39.743Z,5.80
2017-12-29T10:37:39.767Z,6.40
2017-12-29T10:38:39.729Z,5.30
2017-12-29T10:39:39.719Z,6.90
2017-12-29T10:40:39.713Z,7.30
2017-12-29T10:41:39.728Z,6.10
2017-12-29T10:42:39.695Z,6.00
2017-12-29T10:43:39.690Z,6.00
2017-12-29T10:44:39.687Z,5.40
2017-12-29T10:45:39.683Z,7.60
2017-12-29T10:46:39.674Z,6.50
2017-12-29T10:47:39.666Z,6.80
2017-12-29T10:48:39.660Z,4.60
2017-12-29T10:49:39.656Z,4.70
2017-12-29T10:50:39.645Z,5.10
2017-12-29T10:51:39.639Z,4.90
2017-12-29T10:52:39.634Z,4.90
2017-12-29T10:53:39.627Z,4.80
2017-12-29T10:54:39.677Z,5.60
2017-12-29T10:55:39.616Z,7.90
2017-12-29T10:56:39.611Z,7.10
2017-12-29T10:57:39.600Z,5.10
2017-12-29T10:58:39.592Z,5.30
2017-12-29T10:59:39.586Z,5.10
2017-12-29T11:00:39.581Z,4.90
2017-12-29T11:01:39.572Z,5.40
2017-12-29T11:02:39.568Z,4.80
2017-12-29T11:03:39.557Z,6.20
2017-12-29T11:04:39.551Z,4.90
2017-12-29T11:05:39.545Z,5.50
2017-12-29T11:06:39.535Z,4.80
2017-12-29T11:07:39.531Z,5.40
2017-12-29T11:08:39.527Z,5.70
2017-12-29T11:09:39.515Z,6.20
2017-12-29T11:10:39.506Z,6.80
2017-12-29T11:11:39.498Z,5.70
2017-12-29T11:12:39.514Z,6.80
2017-12-29T11:13:39.486Z,6.10
2017-12-29T11:14:39.479Z,6.40
2017-12-29T11:15:39.473Z,4.90
2017-12-29T11:16:39.462Z,5.80
2017-12-29T11:17:39.461Z,4.50
2017-12-29T11:18:39.462Z,6.40
2017-12-29T11:19:39.442Z,6.60
2017-12-29T11:20:39.436Z,5.70
2017-12-29T11:21:39.430Z,7.20
2017-12-29T11:22:39.423Z,6.10
2017-12-29T11:23:39.413Z,4.00
2017-12-29T11:24:39.409Z,6.30
2017-12-29T11:25:39.405Z,5.20
2017-12-29T11:26:39.396Z,5.00
2017-12-29T11:27:39.388Z,6.90
2017-12-29T11:28:39.395Z,7.00
2017-12-29T11:29:39.381Z,5.20
2017-12-29T11:30:39.369Z,4.90
2017-12-29T11:31:39.362Z,5.10
2017-12-29T11:32:39.367Z,5.90
2017-12-29T11:33:39.420Z,5.60
2017-12-29T11:34:39.344Z,5.30
2017-12-29T11:35:39.340Z,6.20
2017-12-29T11:36:39.329Z,6.80
2017-12-29T11:37:39.328Z,6.30
2017-12-29T11:38:39.314Z,6.00
2017-12-29T11:39:39.313Z,10.10
2017-12-29T11:40:39.313Z,5.80
2017-12-29T11:41:39.299Z,4.80
2017-12-29T11:42:39.293Z,5.10
2017-12-29T11:43:39.286Z,8.00
2017-12-29T11:44:39.283Z,6.00
2017-12-29T11:45:39.273Z,6.30
2017-12-29T11:46:39.267Z,6.80
2017-12-29T11:47:39.263Z,4.80
2017-12-29T11:48:39.253Z,6.70
2017-12-29T11:49:39.246Z,4.60
2017-12-29T11:50:39.259Z,6.20
2017-12-29T11:51:39.232Z,4.50
2017-12-29T11:52:39.230Z,5.40
2017-12-29T11:53:39.223Z,6.80
2017-12-29T11:54:39.209Z,5.50
2017-12-29T11:55:39.206Z,6.20
2017-12-29T11:56:39.195Z,6.70
2017-12-29T11:57:39.188Z,4.30
2017-12-29T11:58:39.177Z,4.50
2017-12-29T11:59:39.167Z,4.70
2017-12-29T12:00:39.166Z,5.30
2017-12-29T12:01:39.156Z,5.80
2017-12-29T12:02:39.148Z,6.80
2017-12-29T12:03:39.141Z,5.20
2017-12-29T12:04:39.136Z,5.40
2017-12-29T12:05:39.165Z,7.40
2017-12-29T12:06:39.115Z,5.00
2017-12-29T12:07:39.148Z,5.00
2017-12-29T12:08:39.098Z,6.70
2017-12-29T12:09:39.102Z,5.00
2017-12-29T12:10:39.082Z,7.30
2017-12-29T12:11:39.073Z,4.80
2017-12-29T12:12:39.062Z,4.20
2017-12-29T12:13:39.055Z,6.30
2017-12-29T12:14:39.065Z,9.90
2017-12-29T12:15:39.048Z,4.90
2017-12-29T12:16:39.029Z,6.40
2017-12-29T12:17:39.042Z,6.40
2017-12-29T12:18:39.010Z,4.70
2017-12-29T12:19:39.001Z,5.20
2017-12-29T12:20:38.989Z,6.30
2017-12-29T12:21:38.980Z,5.70
2017-12-29T12:22:38.974Z,7.50
2017-12-29T12:23:38.964Z,7.30
2017-12-29T12:24:38.956Z,7.70
2017-12-29T12:25:38.947Z,5.90
2017-12-29T12:26:38.937Z,7.10
2017-12-29T12:27:38.926Z,5.40
2017-12-29T12:28:38.918Z,5.20
2017-12-29T12:29:38.911Z,4.30
2017-12-29T12:30:38.901Z,7.20
2017-12-29T12:31:38.890Z,5.50
2017-12-29T12:32:38.882Z,5.50
2017-12-29T12:33:38.874Z,9.40
2017-12-29T12:34:38.861Z,5.50
2017-12-29T12:35:38.855Z,4.90
2017-12-29T12:36:38.844Z,7.10
2017-12-29T12:37:38.834Z,5.00
2017-12-29T12:38:39.555Z,5.10
2017-12-29T12:39:38.815Z,5.80
2017-12-29T12:40:38.802Z,6.30
2017-12-29T12:41:38.795Z,4.90
2017-12-29T12:42:38.793Z,6.40
2017-12-29T12:43:38.816Z,8.30
2017-12-29T12:44:38.769Z,5.80
2017-12-29T12:45:38.855Z,6.00
2017-12-29T12:46:38.749Z,6.80
2017-12-29T12:47:38.743Z,7.70
2017-12-29T12:48:38.728Z,5.50
2017-12-29T12:49:38.720Z,8.80
2017-12-29T12:50:38.712Z,4.10
2017-12-29T12:51:38.702Z,5.60
2017-12-29T12:52:38.694Z,5.70
2017-12-29T12:53:38.679Z,5.50
2017-12-29T12:54:38.670Z,7.00
2017-12-29T12:55:38.664Z,7.30
2017-12-29T12:56:38.652Z,6.20
2017-12-29T12:57:38.642Z,5.90
2017-12-29T12:58:38.631Z,7.20
2017-12-29T12:59:38.678Z,8.00
2017-12-29T13:00:38.611Z,5.40
2017-12-29T13:01:38.604Z,5.90